Abingdon, Iowa
Current Conditions -  °F | °C
As of 10:15 AM on Sunday 25 Jan 2015 (Local Time) from KFFL Reporting Station
Light Snow Light Snow  
Wind Chill: 19°   Ceiling: 600
Heat Index: 32°   Visibility: 0.75mi
Dew Point: 30°   Wind: 24mph
Humidity: 93%   Direction: 40°NE
Pressure: 29.74"   Gusts: 30mph
Location:  40.9883°N, 92.1215°W
Report Text: KFFL 251615Z AUTO 04021G26KT 3/4SM -SN BKN006 00/M01 A2974 RMK AO2
Loading
Personal Weather Stations






























Interactive Weather Map New forecast layout! Learn more

10-Day Weather Forecast

Advertisements
Track Severe Weather on mobile